Dades meteomassalio
Diari Summary for Gener 4, 2017 Units:  English    Metric   Both
« Previous Day
Next Day »
Diari Semanal Mensual Anual Personalitzat
  Maxima: Minima: Mijana:
Temperatura: TemperatureC °F -2.2 °F 5.2 °F
Rosada: DewpointC °F -2.8 °F 1.5 °F
Humitat: Humidity % 50 % 79 %
Velocitat del vent: WindSpeedKMH mph 0.0 mph 0 mph
Racha vent: WindSpeedGustKMH mph - -
Vent:- - North
Pressio: PressurehPa in 1024.3 in -
Pluja: 0.5 in    
Historical Graphs
 
 
Tabular Data for Gener 4, 2017
Time Temperature Dew Point Pressure Wind Wind Speed Wind Gust Humidity Rainfall Rate (Hourly) solar Conditions
TemperatureC °F DewpointC °F PressurehPa in Calm     Humidity % HourlyPrecipMM in SolarRadiationWatts/m^2 W/m2 Conditions
00:04 -0.6 °F -1.3 °F 1028.0 in Calm     95 % 0.0 in 0.0 W/m2 CLR
00:09 -0.6 °F -1.3 °F 1028.0 in Calm     95 % 0.0 in 0.0 W/m2 CLR
00:14 -0.6 °F -1.3 °F 1028.0 in Calm     95 % 0.0 in 0.0 W/m2 CLR
00:19 -0.6 °F -1.3 °F 1028.0 in Calm     95 % 0.0 in 0.0 W/m2 CLR
00:24 -0.7 °F -1.4 °F 1028.0 in Calm     95 % 0.0 in 0.0 W/m2 CLR
00:29 -0.7 °F -1.4 °F 1028.0 in Calm     95 % 0.0 in 0.0 W/m2 CLR
00:34 -0.8 °F -1.5 °F 1028.0 in Calm     95 % 0.0 in 0.0 W/m2 CLR
00:39 -0.8 °F -1.6 °F 1028.0 in Calm     95 % 0.0 in 0.0 W/m2 CLR
00:44 -0.8 °F -1.5 °F 1028.0 in Calm     95 % 0.0 in 0.0 W/m2 CLR
00:49 -0.7 °F -1.4 °F 1028.0 in Calm     95 % 0.0 in 0.0 W/m2 CLR
00:54 -0.7 °F -1.4 °F 1028.0 in Calm     95 % 0.0 in 0.0 W/m2 CLR
00:59 -0.7 °F -1.4 °F 1027.7 in Calm     95 % 0.0 in 0.0 W/m2 CLR
01:04 -0.8 °F -1.5 °F 1027.7 in Calm     95 % 0.0 in 0.0 W/m2 CLR
01:09 -0.8 °F -1.5 °F 1027.7 in Calm     95 % 0.0 in 0.0 W/m2 CLR
01:14 -0.8 °F -1.6 °F 1028.0 in Calm     95 % 0.0 in 0.0 W/m2 CLR
01:19 -0.8 °F -1.6 °F 1027.7 in Calm     95 % 0.0 in 0.0 W/m2 CLR
01:24 -0.9 °F -1.6 °F 1027.7 in Calm     95 % 0.0 in 0.0 W/m2 CLR
01:29 -0.9 °F -1.7 °F 1027.7 in Calm     95 % 0.0 in 0.0 W/m2 CLR
01:34 -1.0 °F -1.7 °F 1027.7 in Calm     95 % 0.0 in 0.0 W/m2 CLR
01:39 -0.9 °F -1.6 °F 1027.7 in Calm     95 % 0.0 in 0.0 W/m2 CLR
01:44 -0.8 °F -1.6 °F 1027.7 in Calm     95 % 0.0 in 0.0 W/m2 CLR
01:49 -0.8 °F -1.5 °F 1027.7 in Calm     95 % 0.0 in 0.0 W/m2 CLR
01:54 -0.7 °F -1.4 °F 1027.7 in Calm     95 % 0.0 in 0.0 W/m2 CLR
01:59 -0.7 °F -1.4 °F 1027.7 in Calm     95 % 0.0 in 0.0 W/m2 CLR
02:04 -0.7 °F -1.4 °F 1027.3 in Calm     95 % 0.0 in 0.0 W/m2 CLR
02:09 -0.8 °F -1.5 °F 1027.3 in Calm     95 % 0.0 in 0.0 W/m2 CLR
02:14 -0.9 °F -1.6 °F 1027.3 in Calm     95 % 0.0 in 0.0 W/m2 CLR
02:19 -0.9 °F -1.7 °F 1027.3 in Calm     95 % 0.0 in 0.0 W/m2 CLR
02:24 -1.1 °F -1.8 °F 1027.3 in Calm     95 % 0.0 in 0.0 W/m2 CLR
02:29 -1.1 °F -1.8 °F 1027.3 in Calm     95 % 0.0 in 0.0 W/m2 CLR
02:34 -1.1 °F -1.8 °F 1027.3 in Calm     95 % 0.0 in 0.0 W/m2 CLR
02:39 -1.1 °F -1.8 °F 1027.3 in Calm     95 % 0.0 in 0.0 W/m2 CLR
02:44 -1.0 °F -1.7 °F 1027.3 in Calm     95 % 0.0 in 0.0 W/m2 CLR
02:49 -1.0 °F -1.7 °F 1027.3 in Calm     95 % 0.0 in 0.0 W/m2 CLR
02:54 -1.0 °F -1.7 °F 1027.7 in Calm     95 % 0.0 in 0.0 W/m2 CLR
02:59 -1.0 °F -1.7 °F 1027.7 in Calm     95 % 0.0 in 0.0 W/m2 CLR
03:04 -1.1 °F -1.8 °F 1027.7 in Calm     95 % 0.0 in 0.0 W/m2 CLR
03:09 -1.1 °F -1.8 °F 1027.7 in Calm     95 % 0.0 in 0.0 W/m2 CLR
03:14 -1.1 °F -1.8 °F 1027.7 in Calm     95 % 0.0 in 0.0 W/m2 CLR
03:19 -1.2 °F -1.9 °F 1027.7 in Calm     95 % 0.0 in 0.0 W/m2 CLR
03:24 -1.2 °F -1.9 °F 1027.7 in Calm     95 % 0.0 in 0.0 W/m2 CLR
03:29 -1.1 °F -1.8 °F 1027.7 in Calm     95 % 0.0 in 0.0 W/m2 CLR
03:34 -1.1 °F -1.8 °F 1027.7 in Calm     95 % 0.0 in 0.0 W/m2 CLR
03:39 -1.1 °F -1.8 °F 1027.7 in Calm     95 % 0.0 in 0.0 W/m2 CLR
03:44 -0.9 °F -1.7 °F 1027.7 in Calm     95 % 0.0 in 0.0 W/m2 CLR
03:49 -0.9 °F -1.6 °F 1027.7 in Calm     95 % 0.0 in 0.0 W/m2 CLR
03:54 -1.1 °F -1.8 °F 1027.7 in Calm     95 % 0.0 in 0.0 W/m2 CLR
03:59 -1.3 °F -2.0 °F 1027.7 in Calm     95 % 0.0 in 0.0 W/m2 CLR
04:04 -1.3 °F -2.1 °F 1027.7 in Calm     95 % 0.0 in 0.0 W/m2 CLR
04:09 -1.4 °F -2.1 °F 1027.7 in Calm     95 % 0.0 in 0.0 W/m2 CLR
04:14 -1.4 °F -2.1 °F 1027.7 in Calm     95 % 0.0 in 0.0 W/m2 CLR
04:19 -1.4 °F -2.1 °F 1027.7 in Calm     95 % 0.0 in 0.0 W/m2 CLR
04:24 -1.4 °F -2.1 °F 1027.7 in Calm     95 % 0.0 in 0.0 W/m2 CLR
04:29 -1.4 °F -2.1 °F 1027.7 in Calm     95 % 0.0 in 0.0 W/m2 CLR
04:34 -1.3 °F -2.1 °F 1027.7 in Calm     95 % 0.0 in 0.0 W/m2 CLR
04:39 -1.3 °F -2.1 °F 1027.7 in Calm     95 % 0.0 in 0.0 W/m2 CLR
04:45 -1.3 °F -2.1 °F 1027.7 in Calm     95 % 0.0 in 0.0 W/m2 CLR
04:50 -1.3 °F -2.1 °F 1027.7 in Calm     95 % 0.0 in 0.0 W/m2 CLR
04:55 -1.3 °F -2.1 °F 1027.7 in Calm     95 % 0.0 in 0.0 W/m2 CLR
05:00 -1.4 °F -2.1 °F 1027.7 in Calm     95 % 0.0 in 0.0 W/m2 CLR
05:05 -1.4 °F -2.2 °F 1027.7 in Calm     95 % 0.0 in 0.0 W/m2 CLR
05:10 -1.5 °F -2.2 °F 1027.7 in Calm     95 % 0.0 in 0.0 W/m2 CLR
05:15 -1.5 °F -2.2 °F 1027.7 in Calm     95 % 0.0 in 0.0 W/m2 CLR
05:20 -1.6 °F -2.3 °F 1027.7 in Calm     95 % 0.0 in 0.0 W/m2 CLR
05:25 -1.6 °F -2.3 °F 1027.7 in Calm     95 % 0.0 in 0.0 W/m2 CLR
05:30 -1.6 °F -2.3 °F 1027.7 in Calm     95 % 0.0 in 0.0 W/m2 CLR
05:35 -1.5 °F -2.2 °F 1027.7 in Calm     95 % 0.0 in 0.0 W/m2 CLR
05:40 -1.5 °F -2.2 °F 1027.7 in Calm     95 % 0.0 in 0.0 W/m2 CLR
05:45 -1.5 °F -2.2 °F 1027.7 in Calm     95 % 0.0 in 0.0 W/m2 CLR
05:50 -1.5 °F -2.2 °F 1027.7 in Calm     95 % 0.0 in 0.0 W/m2 CLR
05:55 -1.6 °F -2.3 °F 1027.7 in Calm     95 % 0.0 in 0.0 W/m2 CLR
06:00 -1.6 °F -2.3 °F 1027.7 in Calm     95 % 0.0 in 0.0 W/m2 CLR
06:05 -1.7 °F -2.4 °F 1027.7 in Calm     95 % 0.0 in 0.0 W/m2 CLR
06:10 -1.7 °F -2.4 °F 1027.7 in Calm     95 % 0.0 in 0.0 W/m2 CLR
06:15 -1.7 °F -2.4 °F 1027.7 in Calm     95 % 0.0 in 0.0 W/m2 CLR
06:20 -1.8 °F -2.5 °F 1027.7 in Calm     95 % 0.0 in 0.0 W/m2 CLR
06:25 -1.8 °F -2.6 °F 1027.7 in Calm     95 % 0.0 in 0.0 W/m2 CLR
06:30 -1.9 °F -2.6 °F 1027.7 in Calm     95 % 0.0 in 0.0 W/m2 CLR
06:35 -1.9 °F -2.6 °F 1027.7 in Calm     95 % 0.0 in 0.0 W/m2 CLR
06:40 -1.8 °F -2.6 °F 1027.7 in Calm     95 % 0.0 in 0.0 W/m2 CLR
06:50 -1.8 °F -2.6 °F 1027.7 in Calm     95 % 0.0 in 0.0 W/m2 CLR
06:55 -1.7 °F -2.4 °F 1027.7 in Calm     95 % 0.0 in 0.0 W/m2 CLR
07:00 -1.7 °F -2.4 °F 1028.0 in Calm     95 % 0.0 in 0.0 W/m2 CLR
07:05 -1.7 °F -2.4 °F 1028.0 in Calm     95 % 0.0 in 0.0 W/m2 CLR
07:10 -1.8 °F -2.5 °F 1028.0 in Calm     95 % 0.0 in 0.0 W/m2 CLR
07:15 -1.9 °F -2.6 °F 1028.0 in Calm     95 % 0.0 in 0.0 W/m2 CLR
07:20 -1.9 °F -2.6 °F 1028.0 in Calm     95 % 0.0 in 0.0 W/m2 CLR
07:25 -1.9 °F -2.6 °F 1028.0 in Calm     95 % 0.0 in 0.0 W/m2 CLR
07:30 -1.9 °F -2.6 °F 1028.0 in Calm     95 % 0.0 in 0.0 W/m2 CLR
07:35 -1.9 °F -2.6 °F 1028.0 in Calm     95 % 0.0 in 0.0 W/m2 CLR
07:40 -1.9 °F -2.6 °F 1028.0 in Calm     95 % 0.0 in 0.0 W/m2 CLR
07:45 -1.9 °F -2.6 °F 1028.3 in Calm     95 % 0.0 in 0.0 W/m2 CLR
07:50 -2.0 °F -2.7 °F 1028.3 in Calm     95 % 0.0 in 0.0 W/m2 CLR
07:55 -2.1 °F -2.8 °F 1028.3 in Calm     95 % 0.0 in 0.0 W/m2 CLR
08:00 -2.2 °F -2.8 °F 1028.3 in Calm     95 % 0.0 in 0.0 W/m2 CLR
08:05 -2.1 °F -2.8 °F 1028.3 in Calm     95 % 0.0 in 0.0 W/m2 CLR
08:10 -2.1 °F -2.7 °F 1028.3 in Calm     95 % 0.0 in 0.0 W/m2 CLR
08:15 -1.9 °F -2.6 °F 1028.3 in Calm     95 % 0.0 in 0.0 W/m2 CLR
08:20 -1.6 °F -2.3 °F 1028.3 in Calm     95 % 0.0 in 0.0 W/m2 CLR
08:25 -1.4 °F -2.2 °F 1028.0 in Calm     95 % 0.0 in 5.0 W/m2 BKN
08:30 -1.5 °F -2.2 °F 1028.3 in Calm     95 % 0.0 in 7.0 W/m2 BKN
08:35 -1.2 °F -1.9 °F 1028.3 in Calm     95 % 0.0 in 9.0 W/m2 BKN
08:40 -1.4 °F -2.1 °F 1028.0 in Calm     95 % 0.0 in 12.0 W/m2 BKN
08:45 -1.4 °F -2.2 °F 1028.0 in Calm     95 % 0.0 in 14.0 W/m2 BKN
08:50 -1.3 °F -2.0 °F 1028.0 in Calm     95 % 0.0 in 18.0 W/m2 BKN
08:55 -1.0 °F -1.7 °F 1028.0 in Calm     95 % 0.0 in 21.0 W/m2 BKN
09:00 -0.8 °F -1.5 °F 1028.3 in Calm     95 % 0.0 in 23.0 W/m2 BKN
09:05 -0.5 °F -1.2 °F 1028.3 in Calm     95 % 0.0 in 33.0 W/m2 BKN
09:10 -0.3 °F -1.0 °F 1028.3 in Calm     95 % 0.0 in 53.0 W/m2 BKN
09:15 0.1 °F -0.7 °F 1028.3 in Calm     95 % 0.0 in 70.0 W/m2 BKN
09:20 0.3 °F -0.4 °F 1028.3 in Calm     95 % 0.0 in 63.0 W/m2 BKN
09:25 0.4 °F -0.3 °F 1028.3 in Calm     95 % 0.0 in 88.0 W/m2 BKN
09:30 0.7 °F -0.1 °F 1028.3 in Calm     95 % 0.0 in 98.0 W/m2 BKN
09:35 0.8 °F 0.1 °F 1028.3 in Calm     95 % 0.0 in 100.0 W/m2 BKN
09:40 1.3 °F 0.6 °F 1028.3 in Calm     95 % 0.0 in 134.0 W/m2 BKN
09:45 1.6 °F 0.8 °F 1028.3 in Calm     95 % 0.3 in 146.0 W/m2 RA
09:50 1.7 °F 1.0 °F 1028.3 in Calm     95 % 0.3 in 125.0 W/m2 SCT
09:55 2.0 °F 1.3 °F 1028.3 in Calm     95 % 0.3 in 169.0 W/m2 SCT
10:00 2.3 °F 1.6 °F 1028.3 in Calm     95 % 0.5 in 185.0 W/m2 RA
10:05 2.6 °F 1.8 °F 1028.3 in Calm     95 % 0.5 in 156.0 W/m2 SCT
10:10 2.4 °F 1.7 °F 1028.3 in Calm     95 % 0.5 in 183.0 W/m2 SCT
10:15 2.4 °F 1.7 °F 1028.3 in Calm     95 % 0.5 in 183.0 W/m2 SCT
10:20 2.4 °F 1.7 °F 1028.3 in Calm     95 % 0.5 in 225.0 W/m2 BKN
10:25 2.6 °F 1.8 °F 1028.3 in Calm     95 % 0.5 in 244.0 W/m2 SCT
10:30 2.7 °F 1.9 °F 1028.3 in Calm     95 % 0.5 in 257.0 W/m2 SCT
10:35 3.0 °F 2.3 °F 1028.3 in Calm     95 % 0.5 in 265.0 W/m2 SCT
10:40 3.4 °F 2.7 °F 1028.7 in Calm     95 % 0.5 in 272.0 W/m2 SCT
10:45 4.1 °F 3.3 °F 1028.3 in Calm     95 % 0.3 in 283.0 W/m2 SCT
10:50 4.8 °F 4.1 °F 1028.3 in Calm     95 % 0.3 in 294.0 W/m2 SCT
10:56 5.8 °F 5.1 °F 1028.3 in Calm     95 % 0.3 in 301.0 W/m2 SCT
11:01 6.7 °F 5.9 °F 1028.3 in Calm     95 % 0.0 in 306.0 W/m2 FEW
11:06 7.3 °F 6.6 °F 1028.3 in Calm     95 % 0.0 in 315.0 W/m2 FEW
11:11 7.8 °F 7.0 °F 1028.0 in Calm     95 % 0.0 in 325.0 W/m2 FEW
11:16 8.3 °F 6.8 °F 1028.0 in Calm     90 % 0.0 in 332.0 W/m2 FEW
11:21 8.5 °F 6.3 °F 1028.0 in Calm     86 % 0.0 in 338.0 W/m2 FEW
11:26 8.8 °F 6.2 °F 1028.0 in Calm     84 % 0.0 in 346.0 W/m2 FEW
11:27 8.8 °F 6.1 °F 1028.0 in Calm     83 % 0.0 in 350.0 W/m2 FEW
11:32 8.9 °F 6.0 °F 1028.0 in Calm     82 % 0.0 in 359.0 W/m2 FEW
11:37 9.0 °F 5.9 °F 1028.0 in Calm     81 % 0.0 in 367.0 W/m2 FEW
11:42 9.0 °F 5.6 °F 1027.7 in Calm     79 % 0.0 in 374.0 W/m2 FEW
11:47 9.1 °F 5.8 °F 1027.7 in Calm     80 % 0.0 in 378.0 W/m2 FEW
11:52 9.2 °F 5.8 °F 1027.7 in Calm     79 % 0.0 in 385.0 W/m2 FEW
11:57 9.3 °F 6.0 °F 1027.7 in Calm     80 % 0.0 in 390.0 W/m2 FEW
12:02 9.3 °F 5.8 °F 1027.7 in Calm     79 % 0.0 in 392.0 W/m2 FEW
12:07 9.4 °F 6.2 °F 1027.3 in Calm     80 % 0.0 in 396.0 W/m2 FEW
12:12 9.7 °F 6.3 °F 1027.3 in Calm     79 % 0.0 in 401.0 W/m2 FEW
12:17 9.9 °F 6.4 °F 1027.3 in Calm     79 % 0.0 in 406.0 W/m2 FEW
12:22 10.1 °F 6.2 °F 1027.0 in Calm     77 % 0.0 in 410.0 W/m2 CLR
12:27 10.3 °F 6.2 °F 1027.0 in Calm     76 % 0.0 in 411.0 W/m2 CLR
12:32 10.5 °F 6.3 °F 1027.0 in Calm     75 % 0.0 in 413.0 W/m2 CLR
12:37 10.6 °F 6.2 °F 1026.6 in Calm     74 % 0.0 in 417.0 W/m2 CLR
12:42 10.7 °F 6.3 °F 1026.6 in Calm     74 % 0.0 in 417.0 W/m2 CLR
12:47 10.7 °F 6.3 °F 1026.6 in Calm     74 % 0.0 in 417.0 W/m2 CLR
12:52 10.7 °F 6.3 °F 1026.6 in Calm     74 % 0.0 in 418.0 W/m2 CLR
12:57 10.9 °F 6.6 °F 1026.3 in Calm     75 % 0.0 in 420.0 W/m2 CLR
13:12 11.2 °F 6.6 °F 1026.3 in Calm     73 % 0.0 in 424.0 W/m2 CLR
13:17 11.2 °F 6.8 °F 1026.0 in Calm     74 % 0.0 in 425.0 W/m2 CLR
13:22 11.1 °F 6.3 °F 1026.0 in Calm     72 % 0.0 in 422.0 W/m2 CLR
13:27 10.9 °F 6.3 °F 1026.0 in Calm     73 % 0.0 in 422.0 W/m2 CLR
13:32 10.7 °F 6.0 °F 1026.0 in Calm     73 % 0.0 in 422.0 W/m2 CLR
13:37 10.6 °F 6.3 °F 1026.0 in Calm     75 % 0.0 in 420.0 W/m2 CLR
13:43 10.4 °F 5.8 °F 1026.0 in Calm     73 % 0.0 in 418.0 W/m2 CLR
13:48 10.2 °F 5.6 °F 1026.0 in Calm     73 % 0.0 in 413.0 W/m2 CLR
13:53 10.1 °F 5.5 °F 1026.0 in Calm     73 % 0.0 in 411.0 W/m2 CLR
13:58 10.2 °F 5.6 °F 1025.6 in Calm     73 % 0.0 in 408.0 W/m2 CLR
14:03 10.2 °F 5.6 °F 1025.6 in Calm     73 % 0.0 in 404.0 W/m2 CLR
14:08 10.4 °F 5.4 °F 1025.6 in Calm     71 % 0.0 in 399.0 W/m2 CLR
14:13 10.4 °F 5.4 °F 1025.6 in Calm     71 % 0.0 in 394.0 W/m2 CLR
14:18 10.4 °F 5.6 °F 1025.6 in Calm     72 % 0.0 in 387.0 W/m2 CLR
14:23 10.4 °F 5.2 °F 1025.6 in Calm     70 % 0.0 in 381.0 W/m2 CLR
14:28 10.2 °F 5.2 °F 1025.3 in Calm     71 % 0.0 in 374.0 W/m2 CLR
14:33 10.1 °F 5.1 °F 1025.3 in Calm     71 % 0.0 in 371.0 W/m2 CLR
14:38 10.1 °F 5.1 °F 1025.3 in Calm     71 % 0.0 in 364.0 W/m2 CLR
14:43 10.2 °F 5.2 °F 1024.9 in Calm     71 % 0.0 in 357.0 W/m2 CLR
14:48 10.2 °F 5.0 °F 1024.9 in Calm     70 % 0.0 in 348.0 W/m2 CLR
14:53 10.4 °F 5.2 °F 1024.9 in Calm     70 % 0.0 in 343.0 W/m2 CLR
14:58 10.7 °F 5.4 °F 1024.9 in Calm     70 % 0.0 in 336.0 W/m2 CLR
15:03 10.7 °F 5.2 °F 1024.9 in Calm     69 % 0.0 in 325.0 W/m2 CLR
15:08 10.5 °F 5.1 °F 1024.9 in Calm     69 % 0.0 in 316.0 W/m2 CLR
15:09 10.5 °F 5.3 °F 1024.9 in Calm     70 % 0.0 in 315.0 W/m2 CLR
15:14 10.7 °F 5.0 °F 1024.9 in Calm     68 % 0.0 in 306.0 W/m2 CLR
15:19 10.9 °F 5.3 °F 1024.9 in Calm     68 % 0.0 in 297.0 W/m2 CLR
15:24 11.0 °F 5.3 °F 1024.9 in Calm     68 % 0.0 in 288.0 W/m2 CLR
15:29 11.0 °F 5.1 °F 1024.9 in Calm     67 % 0.0 in 281.0 W/m2 CLR
15:34 11.0 °F 5.3 °F 1024.6 in Calm     68 % 0.0 in 267.0 W/m2 CLR
15:39 11.1 °F 5.4 °F 1024.6 in Calm     68 % 0.0 in 257.0 W/m2 CLR
15:44 11.2 °F 5.3 °F 1024.6 in Calm     67 % 0.0 in 246.0 W/m2 CLR
15:49 11.3 °F 5.2 °F 1024.6 in Calm     66 % 0.0 in 234.0 W/m2 CLR
15:54 11.4 °F 5.3 °F 1024.6 in Calm     66 % 0.0 in 220.0 W/m2 CLR
15:59 11.4 °F 5.1 °F 1024.6 in Calm     65 % 0.0 in 209.0 W/m2 CLR
16:04 11.4 °F 5.1 °F 1024.6 in Calm     65 % 0.0 in 195.0 W/m2 CLR
16:09 11.6 °F 5.2 °F 1024.3 in Calm     65 % 0.0 in 183.0 W/m2 CLR
16:14 11.7 °F 4.8 °F 1024.3 in Calm     63 % 0.0 in 167.0 W/m2 CLR
16:19 11.8 °F 4.8 °F 1024.3 in Calm     62 % 0.0 in 155.0 W/m2 CLR
16:24 11.9 °F 4.8 °F 1024.3 in Calm     62 % 0.0 in 141.0 W/m2 CLR
16:29 11.9 °F 4.4 °F 1024.3 in Calm     60 % 0.0 in 128.0 W/m2 CLR
16:34 12.0 °F 4.2 °F 1024.3 in Calm     59 % 0.0 in 114.0 W/m2 CLR
16:39 12.1 °F 4.3 °F 1024.3 in Calm     59 % 0.0 in 100.0 W/m2 CLR
16:44 12.1 °F 4.1 °F 1024.3 in Calm     58 % 0.0 in 88.0 W/m2 CLR
16:49 12.1 °F 3.8 °F 1024.3 in Calm     57 % 0.0 in 77.0 W/m2 CLR
16:54 12.0 °F 3.5 °F 1024.3 in Calm     56 % 0.0 in 60.0 W/m2 CLR
16:59 11.9 °F 3.6 °F 1024.3 in Calm     57 % 0.0 in 49.0 W/m2 OVC
17:04 11.8 °F 3.3 °F 1024.3 in Calm     56 % 0.0 in 42.0 W/m2 OVC
17:09 11.8 °F 3.6 °F 1024.3 in Calm     57 % 0.0 in 32.0 W/m2 OVC
17:14 11.7 °F 3.5 °F 1024.3 in Calm     57 % 0.0 in 25.0 W/m2 OVC
17:19 11.7 °F 3.4 °F 1024.3 in Calm     57 % 0.0 in 16.0 W/m2 OVC
17:24 11.5 °F 3.5 °F 1024.3 in Calm     58 % 0.0 in 14.0 W/m2 OVC
17:29 11.4 °F 3.4 °F 1024.3 in Calm     58 % 0.0 in 12.0 W/m2 OVC
17:34 11.2 °F 3.5 °F 1024.3 in Calm     59 % 0.0 in 11.0 W/m2 OVC
17:39 11.1 °F 3.3 °F 1024.3 in Calm     59 % 0.0 in 7.0 W/m2 OVC
17:44 10.9 °F 3.4 °F 1024.3 in Calm     60 % 0.0 in 5.0 W/m2 OVC
17:49 10.8 °F 3.3 °F 1024.3 in Calm     60 % 0.0 in 0.0 W/m2 CLR
17:54 10.7 °F 3.3 °F 1024.3 in Calm     60 % 0.0 in 0.0 W/m2 CLR
17:59 10.7 °F 3.2 °F 1024.3 in Calm     60 % 0.0 in 0.0 W/m2 CLR
18:04 10.7 °F 3.2 °F 1024.3 in Calm     60 % 0.0 in 0.0 W/m2 CLR
18:09 10.6 °F 3.1 °F 1024.3 in Calm     60 % 0.0 in 0.0 W/m2 CLR
18:14 10.6 °F 3.1 °F 1024.3 in Calm     60 % 0.0 in 0.0 W/m2 CLR
18:19 10.5 °F 3.3 °F 1024.3 in Calm     61 % 0.0 in 0.0 W/m2 CLR
18:24 10.6 °F 3.3 °F 1024.3 in Calm     61 % 0.0 in 0.0 W/m2 CLR
18:29 10.5 °F 3.3 °F 1024.3 in Calm     61 % 0.0 in 0.0 W/m2 CLR
18:39 10.7 °F 3.4 °F 1024.3 in Calm     61 % 0.0 in 0.0 W/m2 CLR
18:44 10.6 °F 3.4 °F 1024.3 in Calm     61 % 0.0 in 0.0 W/m2 CLR
18:49 10.7 °F 3.5 °F 1024.6 in Calm     61 % 0.0 in 0.0 W/m2 CLR
18:55 10.8 °F 3.6 °F 1024.6 in Calm     61 % 0.0 in 0.0 W/m2 CLR
19:00 10.9 °F 3.4 °F 1024.6 in Calm     60 % 0.0 in 0.0 W/m2 CLR
19:05 10.9 °F 3.7 °F 1024.6 in Calm     61 % 0.0 in 0.0 W/m2 CLR
19:10 10.9 °F 3.7 °F 1024.6 in Calm     61 % 0.0 in 0.0 W/m2 CLR
19:15 10.9 °F 3.4 °F 1024.6 in Calm     60 % 0.0 in 0.0 W/m2 CLR
19:20 10.8 °F 3.4 °F 1024.6 in Calm     60 % 0.0 in 0.0 W/m2 CLR
19:25 10.8 °F 3.4 °F 1024.6 in Calm     60 % 0.0 in 0.0 W/m2 CLR
19:30 10.7 °F 3.3 °F 1024.6 in Calm     60 % 0.0 in 0.0 W/m2 CLR
19:35 10.7 °F 3.5 °F 1024.9 in Calm     61 % 0.0 in 0.0 W/m2 CLR
19:40 10.7 °F 3.4 °F 1024.9 in Calm     61 % 0.0 in 0.0 W/m2 CLR
19:45 10.6 °F 3.6 °F 1024.9 in Calm     62 % 0.0 in 0.0 W/m2 CLR
19:50 10.5 °F 3.5 °F 1024.9 in Calm     62 % 0.0 in 0.0 W/m2 CLR
19:55 10.5 °F 3.3 °F 1024.9 in Calm     61 % 0.0 in 0.0 W/m2 CLR
20:00 10.6 °F 3.2 °F 1024.9 in Calm     60 % 0.0 in 0.0 W/m2 CLR
20:05 10.7 °F 3.2 °F 1024.9 in Calm     60 % 0.0 in 0.0 W/m2 CLR
20:15 10.7 °F 2.7 °F 1024.9 in Calm     58 % 0.0 in 0.0 W/m2 CLR
20:20 10.7 °F 2.5 °F 1024.9 in Calm     57 % 0.0 in 0.0 W/m2 CLR
20:25 10.8 °F 2.8 °F 1024.9 in Calm     58 % 0.0 in 0.0 W/m2 CLR
20:30 10.7 °F 2.7 °F 1024.9 in Calm     58 % 0.0 in 0.0 W/m2 CLR
20:40 10.6 °F 2.9 °F 1024.9 in Calm     59 % 0.0 in 0.0 W/m2 CLR
20:45 10.5 °F 2.8 °F 1024.9 in Calm     59 % 0.0 in 0.0 W/m2 CLR
20:50 10.5 °F 2.8 °F 1024.9 in Calm     59 % 0.0 in 0.0 W/m2 CLR
20:55 10.5 °F 2.8 °F 1024.9 in Calm     59 % 0.0 in 0.0 W/m2 CLR
21:00 10.4 °F 2.7 °F 1024.9 in Calm     59 % 0.0 in 0.0 W/m2 CLR
21:05 10.3 °F 2.7 °F 1024.9 in Calm     59 % 0.0 in 0.0 W/m2 CLR
21:10 10.3 °F 2.7 °F 1024.9 in Calm     59 % 0.0 in 0.0 W/m2 CLR
21:15 10.3 °F 2.7 °F 1024.9 in Calm     59 % 0.0 in 0.0 W/m2 CLR
21:20 10.2 °F 2.6 °F 1024.9 in Calm     59 % 0.0 in 0.0 W/m2 CLR
21:25 10.2 °F 2.5 °F 1024.9 in Calm     59 % 0.0 in 0.0 W/m2 CLR
21:30 10.2 °F 2.6 °F 1024.9 in Calm     59 % 0.0 in 0.0 W/m2 CLR
21:35 10.3 °F 2.6 °F 1024.9 in Calm     59 % 0.0 in 0.0 W/m2 CLR
21:40 10.2 °F 2.6 °F 1024.9 in Calm     59 % 0.0 in 0.0 W/m2 CLR
21:45 10.2 °F 2.5 °F 1024.9 in Calm     59 % 0.0 in 0.0 W/m2 CLR
21:50 10.1 °F 2.4 °F 1025.3 in Calm     59 % 0.0 in 0.0 W/m2 CLR
21:55 10.1 °F 2.4 °F 1025.3 in Calm     59 % 0.0 in 0.0 W/m2 CLR
22:00 10.1 °F 2.2 °F 1025.3 in Calm     58 % 0.0 in 0.0 W/m2 CLR
22:05 9.9 °F 2.1 °F 1025.3 in Calm     58 % 0.0 in 0.0 W/m2 CLR
22:10 9.9 °F 2.0 °F 1025.3 in Calm     58 % 0.0 in 0.0 W/m2 CLR
22:15 9.9 °F 2.0 °F 1025.3 in Calm     58 % 0.0 in 0.0 W/m2 CLR
22:20 9.8 °F 1.9 °F 1025.3 in Calm     58 % 0.0 in 0.0 W/m2 CLR
22:25 9.8 °F 1.7 °F 1025.3 in Calm     57 % 0.0 in 0.0 W/m2 CLR
22:30 9.7 °F 1.6 °F 1025.3 in Calm     57 % 0.0 in 0.0 W/m2 CLR
22:35 9.7 °F 1.6 °F 1025.3 in Calm     57 % 0.0 in 0.0 W/m2 CLR
22:40 9.7 °F 1.6 °F 1025.3 in Calm     57 % 0.0 in 0.0 W/m2 CLR
22:45 9.6 °F 1.3 °F 1025.3 in Calm     56 % 0.0 in 0.0 W/m2 CLR
22:50 9.6 °F 1.2 °F 1025.3 in Calm     56 % 0.0 in 0.0 W/m2 CLR
22:55 9.5 °F 0.9 °F 1025.3 in Calm     55 % 0.0 in 0.0 W/m2 CLR
23:00 9.4 °F 0.8 °F 1025.3 in Calm     55 % 0.0 in 0.0 W/m2 CLR
23:05 9.4 °F 0.8 °F 1025.3 in Calm     55 % 0.0 in 0.0 W/m2 CLR
23:10 9.4 °F 0.3 °F 1025.6 in Calm     53 % 0.0 in 0.0 W/m2 CLR
23:15 9.3 °F 0.2 °F 1025.6 in Calm     53 % 0.0 in 0.0 W/m2 CLR
23:20 9.3 °F -0.1 °F 1025.6 in Calm     52 % 0.0 in 0.0 W/m2 CLR
23:25 9.1 °F 0.0 °F 1025.3 in Calm     53 % 0.0 in 0.0 W/m2 CLR
23:30 9.1 °F 0.2 °F 1025.3 in Calm     54 % 0.0 in 0.0 W/m2 CLR
23:35 8.9 °F 0.1 °F 1025.6 in Calm     54 % 0.0 in 0.0 W/m2 CLR
23:40 9.0 °F -0.6 °F 1025.3 in Calm     51 % 0.0 in 0.0 W/m2 CLR
23:48 8.9 °F -1.0 °F 1025.3 in Calm     50 % 0.0 in 0.0 W/m2 CLR
23:59 8.8 °F -1.1 °F 1025.3 in Calm     50 % 0.0 in 0.0 W/m2 CLR
Lo Temps de Massalio
Compliments of Weather Underground - 1.25 mb